createdAt,value
2023-10-16T00:00:39.598Z,4.98
2023-10-16T00:03:06.767Z,4.91
2023-10-16T00:05:38.294Z,4.88
2023-10-16T00:08:06.057Z,4.81
2023-10-16T00:10:34.908Z,4.80
2023-10-16T00:13:02.072Z,4.71
2023-10-16T00:15:29.042Z,4.64
2023-10-16T00:17:56.076Z,4.64
2023-10-16T00:20:23.153Z,4.61
2023-10-16T00:22:50.041Z,4.56
2023-10-16T00:25:17.004Z,4.59
2023-10-16T00:27:45.696Z,4.57
2023-10-16T00:30:13.261Z,4.58
2023-10-16T00:32:40.314Z,4.65
2023-10-16T00:35:08.067Z,4.64
2023-10-16T00:37:35.036Z,4.64
2023-10-16T00:40:02.122Z,4.57
2023-10-16T00:42:29.215Z,4.51
2023-10-16T00:44:58.470Z,4.47
2023-10-16T00:47:25.481Z,4.47
2023-10-16T00:49:52.948Z,4.42
2023-10-16T00:52:20.288Z,4.36
2023-10-16T00:54:47.622Z,4.30
2023-10-16T00:57:15.472Z,4.24
2023-10-16T00:59:42.444Z,4.22
2023-10-16T01:02:11.313Z,4.13
2023-10-16T01:04:38.657Z,4.08
2023-10-16T01:07:05.616Z,4.08
2023-10-16T01:09:33.692Z,4.13
2023-10-16T01:12:01.103Z,4.18
2023-10-16T01:14:28.268Z,4.21
2023-10-16T01:16:55.659Z,4.21
2023-10-16T01:19:24.307Z,4.23
2023-10-16T01:21:51.338Z,4.23
2023-10-16T01:24:20.078Z,4.22
2023-10-16T01:26:47.168Z,4.15
2023-10-16T01:29:14.071Z,4.09
2023-10-16T01:31:41.032Z,4.04
2023-10-16T01:34:07.943Z,4.04
2023-10-16T01:36:35.151Z,4.02
2023-10-16T01:39:02.052Z,4.06
2023-10-16T01:41:30.802Z,4.18
2023-10-16T01:43:57.842Z,4.28
2023-10-16T01:46:24.923Z,4.23
2023-10-16T01:48:52.318Z,4.23
2023-10-16T01:51:19.151Z,4.21
2023-10-16T01:53:46.674Z,4.19
2023-10-16T01:56:13.695Z,4.20
2023-10-16T01:58:43.804Z,4.22
2023-10-16T02:01:11.437Z,4.27
2023-10-16T02:03:38.846Z,4.40
2023-10-16T02:06:06.210Z,4.49
2023-10-16T02:08:33.197Z,4.57
2023-10-16T02:11:00.112Z,4.62
2023-10-16T02:13:27.008Z,4.65
2023-10-16T02:15:55.818Z,4.70
2023-10-16T02:18:22.825Z,4.80
2023-10-16T02:20:51.619Z,4.90
2023-10-16T02:23:19.992Z,4.97
2023-10-16T02:25:47.258Z,5.09
2023-10-16T02:28:14.286Z,5.19
2023-10-16T02:30:41.677Z,5.27
2023-10-16T02:33:10.265Z,5.31
2023-10-16T02:35:37.151Z,5.34
2023-10-16T02:38:04.494Z,5.35
2023-10-16T02:40:31.496Z,5.35
2023-10-16T02:42:58.438Z,5.39
2023-10-16T02:45:25.748Z,5.39
2023-10-16T02:47:53.325Z,5.34
2023-10-16T02:50:22.049Z,5.25
2023-10-16T02:52:49.126Z,5.20
2023-10-16T02:55:16.478Z,5.14
2023-10-16T02:57:43.540Z,5.19
2023-10-16T03:00:11.707Z,5.25
2023-10-16T03:02:38.944Z,5.19
2023-10-16T03:05:06.246Z,5.12
2023-10-16T03:07:34.832Z,4.97
2023-10-16T03:10:01.844Z,4.91
2023-10-16T03:12:28.764Z,4.89
2023-10-16T03:14:55.834Z,4.88
2023-10-16T03:17:23.337Z,4.87
2023-10-16T03:19:52.640Z,4.82
2023-10-16T03:22:19.597Z,4.74
2023-10-16T03:24:48.341Z,4.64
2023-10-16T03:27:15.438Z,4.58
2023-10-16T03:29:42.333Z,4.54
2023-10-16T03:32:09.772Z,4.51
2023-10-16T03:34:36.973Z,4.58
2023-10-16T03:37:04.249Z,4.64
2023-10-16T03:39:31.956Z,4.62
2023-10-16T03:42:00.628Z,4.55
2023-10-16T03:44:28.082Z,4.42
2023-10-16T03:46:55.384Z,4.34
2023-10-16T03:49:22.731Z,4.26
2023-10-16T03:51:49.779Z,4.13
2023-10-16T03:54:16.785Z,4.12
2023-10-16T03:56:44.114Z,4.16
2023-10-16T03:59:12.649Z,4.20
2023-10-16T04:01:39.577Z,4.14
2023-10-16T04:04:06.848Z,4.11
2023-10-16T04:06:34.017Z,3.95
2023-10-16T04:09:01.349Z,3.81
2023-10-16T04:11:28.377Z,3.77
2023-10-16T04:13:55.250Z,3.77
2023-10-16T04:16:25.627Z,3.82
2023-10-16T04:18:52.733Z,3.82
2023-10-16T04:21:21.199Z,3.86
2023-10-16T04:23:48.319Z,3.95
2023-10-16T04:26:15.318Z,4.11
2023-10-16T04:28:42.202Z,4.22
2023-10-16T04:31:09.197Z,4.16
2023-10-16T04:33:37.942Z,4.20
2023-10-16T04:36:05.428Z,4.19
2023-10-16T04:38:32.722Z,4.24
2023-10-16T04:41:00.130Z,4.31
2023-10-16T04:43:27.003Z,4.38
2023-10-16T04:45:54.055Z,4.43
2023-10-16T04:48:21.154Z,4.43
2023-10-16T04:53:21.957Z,4.08
2023-10-16T04:55:49.058Z,4.03
2023-10-16T04:58:17.755Z,4.03
2023-10-16T05:00:44.739Z,3.98
2023-10-16T05:03:11.943Z,3.82
2023-10-16T05:05:39.421Z,3.66
2023-10-16T05:08:08.624Z,3.58
2023-10-16T05:10:36.232Z,3.53
2023-10-16T05:13:03.171Z,3.46
2023-10-16T05:15:33.054Z,3.44
2023-10-16T05:18:00.091Z,3.41
2023-10-16T05:20:27.055Z,3.38
2023-10-16T05:22:54.052Z,3.33
2023-10-16T05:25:22.585Z,3.37
2023-10-16T05:27:50.035Z,3.37
2023-10-16T05:30:17.046Z,3.40
2023-10-16T05:32:44.515Z,3.39
2023-10-16T05:35:11.531Z,3.41
2023-10-16T05:37:38.429Z,3.32
2023-10-16T05:40:06.282Z,3.33
2023-10-16T05:42:35.201Z,3.35
2023-10-16T05:45:02.694Z,3.41
2023-10-16T05:47:29.738Z,3.53
2023-10-16T05:49:56.857Z,3.68
2023-10-16T05:52:24.043Z,3.73
2023-10-16T05:54:51.128Z,3.85
2023-10-16T05:57:18.332Z,3.92
2023-10-16T05:59:47.217Z,3.95
2023-10-16T06:02:14.323Z,3.91
2023-10-16T06:04:41.427Z,3.97
2023-10-16T06:07:09.094Z,4.04
2023-10-16T06:09:36.738Z,4.04
2023-10-16T06:12:04.183Z,4.12
2023-10-16T06:14:31.112Z,4.13
2023-10-16T06:16:59.350Z,4.23
2023-10-16T06:19:26.587Z,4.48
2023-10-16T06:21:55.971Z,5.51
2023-10-16T06:24:24.504Z,5.61
2023-10-16T06:26:51.667Z,5.19
2023-10-16T06:29:18.762Z,4.97
2023-10-16T06:31:46.386Z,4.87
2023-10-16T06:34:14.947Z,4.81
2023-10-16T06:36:42.074Z,4.67
2023-10-16T06:39:09.190Z,4.57
2023-10-16T06:41:38.521Z,4.59
2023-10-16T06:44:05.812Z,4.71
2023-10-16T06:46:33.042Z,4.87
2023-10-16T06:49:00.193Z,5.01
2023-10-16T06:51:29.047Z,5.11
2023-10-16T06:53:56.289Z,5.18
2023-10-16T06:56:23.548Z,5.21
2023-10-16T06:58:50.530Z,5.27
2023-10-16T07:01:17.658Z,5.29
2023-10-16T07:03:44.755Z,5.36
2023-10-16T07:06:11.847Z,5.50
2023-10-16T07:08:40.541Z,5.50
2023-10-16T07:11:07.729Z,5.50
2023-10-16T07:13:35.029Z,5.52
2023-10-16T07:16:04.268Z,5.61
2023-10-16T07:18:33.189Z,5.57
2023-10-16T07:21:00.787Z,5.56
2023-10-16T07:23:28.709Z,5.56
2023-10-16T07:25:57.874Z,5.62
2023-10-16T07:28:26.450Z,5.71
2023-10-16T07:30:54.320Z,5.88
2023-10-16T07:33:21.364Z,5.96
2023-10-16T07:35:49.763Z,6.03
2023-10-16T07:38:17.900Z,6.04
2023-10-16T07:40:44.909Z,6.15
2023-10-16T07:43:13.598Z,6.20
2023-10-16T07:45:40.701Z,6.23
2023-10-16T07:48:09.288Z,6.34
2023-10-16T07:50:36.909Z,6.34
2023-10-16T07:53:04.182Z,6.46
2023-10-16T07:55:31.216Z,6.63
2023-10-16T07:57:58.811Z,6.67
2023-10-16T08:00:28.671Z,6.68
2023-10-16T08:02:55.628Z,6.83
2023-10-16T08:05:22.627Z,7.08
2023-10-16T08:07:49.695Z,7.27
2023-10-16T08:10:17.250Z,7.35
2023-10-16T08:12:44.596Z,7.41
2023-10-16T08:15:12.049Z,7.54
2023-10-16T08:17:40.812Z,7.65
2023-10-16T08:20:08.714Z,7.82
2023-10-16T08:22:35.780Z,8.00
2023-10-16T08:25:03.006Z,8.28
2023-10-16T08:27:31.056Z,8.61
2023-10-16T08:29:58.445Z,8.96
2023-10-16T08:32:26.306Z,9.84
2023-10-16T08:34:55.801Z,12.64
2023-10-16T08:37:23.540Z,14.94
2023-10-16T08:39:50.533Z,17.02
2023-10-16T08:42:17.847Z,18.80
2023-10-16T08:44:46.824Z,20.50
2023-10-16T08:47:13.908Z,21.91
2023-10-16T08:49:55.712Z,23.33
2023-10-16T08:52:27.642Z,24.76
2023-10-16T08:54:54.785Z,25.58
2023-10-16T08:57:21.945Z,26.00
2023-10-16T08:59:50.275Z,26.28
2023-10-16T09:02:20.001Z,26.49
2023-10-16T09:04:48.648Z,26.83
2023-10-16T09:07:15.728Z,26.41
2023-10-16T09:09:45.357Z,26.39
2023-10-16T09:12:12.527Z,26.37
2023-10-16T09:14:43.634Z,26.14
2023-10-16T09:17:10.591Z,26.39
2023-10-16T09:19:38.718Z,27.23
2023-10-16T09:22:07.831Z,27.99
2023-10-16T09:24:35.189Z,27.81
2023-10-16T09:27:05.694Z,27.97
2023-10-16T09:29:34.206Z,28.41
2023-10-16T09:32:02.691Z,28.81
2023-10-16T09:34:29.658Z,28.73
2023-10-16T09:36:56.755Z,28.46
2023-10-16T09:39:23.708Z,28.56
2023-10-16T09:41:51.259Z,27.61
2023-10-16T09:44:21.259Z,26.91
2023-10-16T09:46:49.104Z,27.36
2023-10-16T09:49:18.426Z,27.88
2023-10-16T09:54:15.414Z,28.83
2023-10-16T09:56:45.550Z,29.96
2023-10-16T09:59:24.860Z,30.66
2023-10-16T10:01:58.678Z,31.18
2023-10-16T10:04:27.672Z,32.13
2023-10-16T10:06:56.615Z,32.53
2023-10-16T10:09:25.963Z,32.37
2023-10-16T10:12:05.072Z,32.94
2023-10-16T10:14:39.760Z,33.86
2023-10-16T10:17:11.154Z,34.22
2023-10-16T10:19:39.427Z,34.47
2023-10-16T10:22:10.570Z,34.56
2023-10-16T10:24:37.788Z,34.37
2023-10-16T10:27:05.470Z,33.63
2023-10-16T10:29:37.104Z,33.44
2023-10-16T10:32:11.422Z,33.39
2023-10-16T10:34:38.441Z,33.02
2023-10-16T10:37:45.265Z,33.56
2023-10-16T10:40:13.270Z,32.87
2023-10-16T10:42:41.242Z,33.25
2023-10-16T10:45:11.400Z,33.70
2023-10-16T10:47:40.265Z,33.55
2023-10-16T10:50:09.150Z,33.53
2023-10-16T10:52:36.162Z,33.11
2023-10-16T10:55:03.492Z,32.54
2023-10-16T10:57:31.691Z,32.64
2023-10-16T10:59:58.851Z,33.16
2023-10-16T11:02:27.277Z,32.73
2023-10-16T11:04:55.396Z,32.74
2023-10-16T11:07:23.668Z,33.30
2023-10-16T11:09:51.808Z,33.77
2023-10-16T11:12:19.165Z,33.73
2023-10-16T11:14:46.106Z,32.88
2023-10-16T11:17:13.374Z,32.98
2023-10-16T11:19:48.070Z,33.05
2023-10-16T11:22:19.954Z,33.59
2023-10-16T11:24:48.443Z,33.76
2023-10-16T11:27:16.255Z,34.15
2023-10-16T11:29:43.259Z,34.07
2023-10-16T11:32:10.500Z,33.79
2023-10-16T11:34:57.475Z,33.43
2023-10-16T11:37:24.672Z,33.65
2023-10-16T11:39:51.791Z,33.35
2023-10-16T11:42:18.923Z,33.30
2023-10-16T11:44:46.137Z,32.82
2023-10-16T11:47:13.026Z,31.35
2023-10-16T11:49:39.913Z,27.83
2023-10-16T11:52:10.292Z,25.03
2023-10-16T11:54:38.461Z,23.31
2023-10-16T11:57:05.674Z,21.54
2023-10-16T11:59:33.307Z,19.86
2023-10-16T12:02:03.877Z,18.81
2023-10-16T12:04:32.898Z,17.90
2023-10-16T12:07:00.720Z,17.19
2023-10-16T12:09:29.680Z,17.05
2023-10-16T12:11:56.979Z,16.49
2023-10-16T12:14:24.489Z,15.95
2023-10-16T12:16:51.841Z,15.64
2023-10-16T12:19:19.496Z,15.31
2023-10-16T12:21:47.640Z,14.84
2023-10-16T12:24:15.004Z,14.70
2023-10-16T12:26:43.765Z,14.60
2023-10-16T12:29:11.329Z,14.34
2023-10-16T12:31:38.583Z,14.19
2023-10-16T12:34:06.319Z,13.95
2023-10-16T12:36:33.609Z,13.74
2023-10-16T12:39:01.129Z,13.40
2023-10-16T12:41:28.105Z,13.37
2023-10-16T12:43:57.610Z,13.25
2023-10-16T12:46:24.696Z,13.10
2023-10-16T12:48:51.855Z,13.17
2023-10-16T12:51:18.989Z,13.13
2023-10-16T12:53:46.095Z,13.06
2023-10-16T12:56:13.350Z,13.18
2023-10-16T12:58:40.662Z,13.34
2023-10-16T13:01:09.593Z,13.48
2023-10-16T13:03:36.868Z,13.36
2023-10-16T13:06:04.313Z,13.45
2023-10-16T13:08:31.373Z,13.61
2023-10-16T13:10:58.431Z,13.54
2023-10-16T13:13:25.799Z,13.48
2023-10-16T13:15:53.110Z,13.61
2023-10-16T13:18:23.866Z,13.76
2023-10-16T13:20:51.722Z,13.72
2023-10-16T13:23:23.968Z,13.59
2023-10-16T13:25:58.148Z,13.56
2023-10-16T13:28:25.584Z,13.75
2023-10-16T13:30:56.237Z,14.56
2023-10-16T13:33:25.087Z,17.40
2023-10-16T13:35:52.035Z,19.89
2023-10-16T13:38:19.370Z,21.58
2023-10-16T13:40:48.729Z,22.57
2023-10-16T13:43:15.921Z,23.83
2023-10-16T13:45:42.963Z,24.23
2023-10-16T13:48:10.128Z,24.08
2023-10-16T13:50:38.963Z,24.42
2023-10-16T13:53:06.172Z,25.05
2023-10-16T13:55:33.342Z,25.52
2023-10-16T13:58:00.481Z,26.09
2023-10-16T14:00:27.583Z,26.69
2023-10-16T14:02:54.797Z,26.56
2023-10-16T14:05:21.779Z,26.69
2023-10-16T14:07:50.129Z,27.05
2023-10-16T14:10:17.275Z,27.81
2023-10-16T14:12:44.365Z,28.28
2023-10-16T14:15:11.362Z,28.39
2023-10-16T14:17:38.315Z,27.86
2023-10-16T14:20:06.962Z,26.95
2023-10-16T14:22:35.359Z,25.61
2023-10-16T14:25:04.222Z,25.25
2023-10-16T14:27:31.759Z,25.21
2023-10-16T14:29:59.127Z,25.05
2023-10-16T14:32:26.881Z,24.85
2023-10-16T14:34:53.820Z,24.96
2023-10-16T14:37:20.784Z,24.51
2023-10-16T14:39:47.765Z,23.78
2023-10-16T14:42:16.931Z,21.94
2023-10-16T14:44:43.964Z,20.27
2023-10-16T14:47:11.002Z,19.18
2023-10-16T14:49:38.377Z,18.14
2023-10-16T14:52:05.865Z,17.32
2023-10-16T14:54:33.996Z,16.69
2023-10-16T14:57:01.033Z,16.05
2023-10-16T14:59:41.063Z,15.54
2023-10-16T15:02:08.199Z,15.10
2023-10-16T15:04:36.342Z,14.55
2023-10-16T15:07:04.754Z,14.07
2023-10-16T15:09:31.829Z,13.85
2023-10-16T15:11:59.536Z,13.69
2023-10-16T15:14:27.539Z,13.47
2023-10-16T15:16:58.127Z,13.24
2023-10-16T15:19:25.952Z,13.01
2023-10-16T15:21:53.834Z,12.86
2023-10-16T15:24:22.620Z,12.74
2023-10-16T15:26:49.659Z,12.60
2023-10-16T15:29:16.701Z,12.45
2023-10-16T15:31:44.284Z,12.36
2023-10-16T15:34:12.908Z,12.30
2023-10-16T15:36:40.213Z,12.21
2023-10-16T15:39:07.481Z,12.09
2023-10-16T15:41:34.912Z,12.08
2023-10-16T15:44:02.065Z,12.03
2023-10-16T15:46:32.721Z,11.94
2023-10-16T15:49:00.792Z,11.88
2023-10-16T15:51:29.713Z,11.79
2023-10-16T15:53:57.219Z,11.68
2023-10-16T15:56:25.271Z,11.53
2023-10-16T15:58:52.567Z,11.39
2023-10-16T16:01:20.968Z,11.27
2023-10-16T16:03:49.982Z,11.22
2023-10-16T16:06:19.994Z,11.20
2023-10-16T16:08:49.630Z,11.18
2023-10-16T16:11:17.184Z,11.10
2023-10-16T16:13:44.770Z,11.03
2023-10-16T16:16:13.932Z,11.01
2023-10-16T16:18:41.722Z,10.90
2023-10-16T16:21:09.376Z,10.83
2023-10-16T16:23:37.128Z,10.77
2023-10-16T16:26:07.623Z,10.77
2023-10-16T16:28:36.203Z,10.67
2023-10-16T16:31:04.553Z,10.56
2023-10-16T16:33:31.710Z,10.43
2023-10-16T16:35:59.250Z,10.36
2023-10-16T16:38:27.295Z,10.26
2023-10-16T16:40:54.318Z,10.19
2023-10-16T16:43:24.372Z,10.14
2023-10-16T16:45:52.051Z,10.09
2023-10-16T16:48:20.420Z,10.01
2023-10-16T16:50:48.123Z,9.93
2023-10-16T16:53:16.826Z,9.93
2023-10-16T16:55:43.846Z,9.92
2023-10-16T16:58:12.021Z,9.93
2023-10-16T17:00:42.618Z,9.81
2023-10-16T17:03:10.360Z,9.72
2023-10-16T17:05:38.879Z,9.59
2023-10-16T17:08:07.539Z,9.49
2023-10-16T17:10:34.802Z,9.39
2023-10-16T17:13:04.179Z,9.31
2023-10-16T17:15:32.181Z,9.23
2023-10-16T17:18:01.224Z,9.16
2023-10-16T17:20:28.908Z,9.09
2023-10-16T17:23:05.797Z,8.99
2023-10-16T17:25:34.028Z,8.85
2023-10-16T17:28:02.353Z,8.77
2023-10-16T17:30:29.793Z,8.67
2023-10-16T17:32:57.606Z,8.62
2023-10-16T17:35:30.197Z,8.58
2023-10-16T17:37:58.951Z,8.46
2023-10-16T17:40:27.077Z,8.41
2023-10-16T17:42:57.675Z,8.34
2023-10-16T17:45:26.465Z,8.29
2023-10-16T17:47:54.183Z,8.20
2023-10-16T17:50:24.007Z,8.11
2023-10-16T17:52:53.528Z,8.05
2023-10-16T17:55:22.494Z,7.98
2023-10-16T17:57:51.012Z,7.89
2023-10-16T18:00:21.598Z,7.79
2023-10-16T18:02:49.547Z,7.65
2023-10-16T18:05:17.972Z,7.57
2023-10-16T18:07:48.455Z,7.47
2023-10-16T18:10:19.659Z,7.37
2023-10-16T18:12:49.277Z,7.26
2023-10-16T18:15:17.202Z,7.19
2023-10-16T18:17:47.002Z,7.19
2023-10-16T18:20:16.243Z,7.17
2023-10-16T18:22:44.286Z,7.12
2023-10-16T18:25:12.233Z,7.08
2023-10-16T18:27:41.073Z,7.04
2023-10-16T18:30:10.342Z,6.96
2023-10-16T18:32:37.769Z,6.85
2023-10-16T18:35:06.262Z,6.75
2023-10-16T18:37:34.278Z,6.69
2023-10-16T18:40:03.136Z,6.67
2023-10-16T18:42:32.973Z,6.61
2023-10-16T18:45:01.886Z,6.57
2023-10-16T18:47:30.146Z,6.57
2023-10-16T18:49:58.138Z,6.49
2023-10-16T18:52:27.267Z,6.39
2023-10-16T18:54:57.916Z,6.36
2023-10-16T18:57:25.461Z,6.34
2023-10-16T18:59:54.897Z,6.29
2023-10-16T19:02:32.129Z,6.24
2023-10-16T19:05:00.902Z,6.22
2023-10-16T19:07:29.031Z,6.18
2023-10-16T19:09:56.808Z,6.15
2023-10-16T19:12:27.282Z,6.15
2023-10-16T19:14:57.134Z,6.12
2023-10-16T19:17:29.292Z,6.08
2023-10-16T19:19:57.628Z,6.04
2023-10-16T19:22:29.422Z,6.00
2023-10-16T19:24:58.006Z,6.00
2023-10-16T19:27:28.163Z,5.99
2023-10-16T19:29:57.124Z,6.00
2023-10-16T19:32:26.688Z,6.02
2023-10-16T19:34:54.701Z,6.00
2023-10-16T19:37:22.586Z,5.89
2023-10-16T19:39:51.599Z,5.82
2023-10-16T19:42:23.403Z,5.73
2023-10-16T19:44:54.199Z,5.69
2023-10-16T19:47:22.476Z,5.68
2023-10-16T19:49:51.816Z,5.68
2023-10-16T19:52:21.140Z,5.69
2023-10-16T19:54:49.927Z,5.64
2023-10-16T19:57:19.283Z,5.58
2023-10-16T19:59:47.203Z,5.56
2023-10-16T20:02:14.910Z,5.53
2023-10-16T20:04:42.213Z,5.49
2023-10-16T20:07:12.645Z,5.39
2023-10-16T20:09:40.613Z,5.36
2023-10-16T20:14:36.706Z,5.30
2023-10-16T20:17:12.882Z,5.27
2023-10-16T20:19:43.128Z,5.25
2023-10-16T20:22:11.826Z,5.23
2023-10-16T20:24:39.526Z,5.17
2023-10-16T20:27:07.544Z,5.14
2023-10-16T20:29:34.610Z,5.12
2023-10-16T20:32:01.832Z,5.10
2023-10-16T20:34:29.267Z,5.07
2023-10-16T20:36:56.251Z,5.01
2023-10-16T20:39:24.939Z,4.99
2023-10-16T20:41:52.010Z,4.99
2023-10-16T20:44:19.076Z,4.97
2023-10-16T20:46:46.339Z,4.94
2023-10-16T20:49:13.369Z,4.89
2023-10-16T20:51:40.466Z,4.90
2023-10-16T20:54:07.737Z,4.89
2023-10-16T20:56:37.213Z,4.89
2023-10-16T20:59:06.227Z,4.89
2023-10-16T21:01:35.032Z,4.90
2023-10-16T21:04:02.613Z,4.92
2023-10-16T21:06:29.682Z,4.93
2023-10-16T21:08:57.365Z,4.91
2023-10-16T21:11:24.724Z,4.89
2023-10-16T21:13:53.632Z,4.90
2023-10-16T21:16:20.774Z,4.86
2023-10-16T21:18:49.290Z,4.81
2023-10-16T21:21:16.592Z,4.74
2023-10-16T21:23:43.755Z,4.71
2023-10-16T21:26:14.739Z,4.68
2023-10-16T21:28:41.796Z,4.62
2023-10-16T21:31:10.579Z,4.60
2023-10-16T21:33:37.610Z,4.62
2023-10-16T21:36:05.595Z,4.63
2023-10-16T21:38:32.990Z,4.62
2023-10-16T21:41:01.056Z,4.61
2023-10-16T21:43:28.818Z,4.65
2023-10-16T21:45:56.003Z,4.65
2023-10-16T21:48:25.345Z,4.63
2023-10-16T21:50:52.558Z,4.59
2023-10-16T21:53:20.206Z,4.53
2023-10-16T21:55:47.456Z,4.49
2023-10-16T21:58:14.525Z,4.43
2023-10-16T22:00:41.633Z,4.43
2023-10-16T22:03:09.530Z,4.40
2023-10-16T22:05:38.224Z,4.34
2023-10-16T22:08:06.071Z,4.31
2023-10-16T22:10:33.242Z,4.29
2023-10-16T22:13:00.181Z,4.28
2023-10-16T22:15:27.290Z,4.24
2023-10-16T22:17:54.825Z,4.21
2023-10-16T22:20:22.066Z,4.18
2023-10-16T22:22:50.381Z,4.17
2023-10-16T22:25:17.453Z,4.17
2023-10-16T22:27:44.443Z,4.17
2023-10-16T22:30:12.760Z,4.19
2023-10-16T22:32:39.815Z,4.19
2023-10-16T22:35:07.601Z,4.18
2023-10-16T22:37:35.028Z,4.17
2023-10-16T22:40:04.203Z,4.13
2023-10-16T22:42:31.296Z,4.15
2023-10-16T22:44:58.390Z,4.15
2023-10-16T22:47:26.012Z,4.14
2023-10-16T22:49:54.899Z,4.10
2023-10-16T22:52:22.520Z,4.09
2023-10-16T22:54:49.618Z,4.08
2023-10-16T22:57:18.379Z,4.06
2023-10-16T22:59:45.220Z,4.04
2023-10-16T23:02:12.185Z,3.99
2023-10-16T23:04:41.594Z,4.03
2023-10-16T23:07:08.797Z,3.99
2023-10-16T23:09:35.946Z,3.97
2023-10-16T23:12:03.932Z,3.96
2023-10-16T23:14:32.658Z,3.92
2023-10-16T23:16:59.660Z,3.88
2023-10-16T23:19:26.918Z,3.85
2023-10-16T23:21:53.911Z,3.85
2023-10-16T23:24:20.968Z,3.87
2023-10-16T23:26:47.958Z,3.85
2023-10-16T23:29:15.260Z,3.82
2023-10-16T23:31:44.352Z,3.78
2023-10-16T23:34:11.357Z,3.77
2023-10-16T23:36:38.635Z,3.80
2023-10-16T23:39:06.001Z,3.87
2023-10-16T23:41:33.289Z,3.91
2023-10-16T23:44:01.209Z,3.91
2023-10-16T23:46:28.523Z,3.90
2023-10-16T23:48:57.634Z,3.89
2023-10-16T23:51:24.508Z,3.82
2023-10-16T23:53:51.921Z,3.75
2023-10-16T23:56:21.266Z,3.74
2023-10-16T23:58:50.528Z,3.70
